Time;durP1;ratioP1;P1;durP2;ratioP2;P2;SDS_P1;SDS_P2;PMS_P1;PMS_P2;Temp;Humidity;BMP_temperature;BMP_pressure;BME280_temperature;BME280_humidity;BME280_pressure;Samples;Min_cycle;Max_cycle;Signal;HPM_P1;HPM_P2
2021/07/02 00:00:51;;;;;;;12.55;7.45;;;;;;;17.98;78.47;101061.28;5093049;28;20032;-75
2021/07/02 00:03:17;;;;;;;12.25;6.85;;;;;;;17.96;78.55;101061.56;5097225;28;20028;-75
2021/07/02 00:05:42;;;;;;;11.73;6.43;;;;;;;17.93;78.57;101058.66;5095593;28;20082;-75
2021/07/02 00:08:08;;;;;;;9.63;6.35;;;;;;;17.91;78.49;101058.13;5096541;28;20031;-75
2021/07/02 00:10:33;;;;;;;10.02;6.40;;;;;;;17.89;78.39;101060.41;5095530;28;20020;-75
2021/07/02 00:12:59;;;;;;;7.72;6.55;;;;;;;17.86;78.44;101061.03;5096410;28;20028;-75
2021/07/02 00:15:24;;;;;;;8.82;6.97;;;;;;;17.84;78.75;101061.34;5084961;28;20032;-75
2021/07/02 00:17:49;;;;;;;11.10;7.00;;;;;;;17.83;78.79;101064.44;5091445;28;20504;-75
2021/07/02 00:20:15;;;;;;;10.73;6.45;;;;;;;17.82;78.76;101071.09;5095440;28;20024;-75
2021/07/02 00:22:40;;;;;;;8.63;6.50;;;;;;;17.83;78.74;101069.94;5096004;28;20027;-76
2021/07/02 00:25:06;;;;;;;8.43;6.30;;;;;;;17.84;78.84;101066.03;5095091;28;20385;-75
2021/07/02 00:27:32;;;;;;;10.75;7.28;;;;;;;17.85;79.03;101064.94;5095525;28;20020;-76
2021/07/02 00:29:57;;;;;;;12.98;7.68;;;;;;;17.87;78.73;101062.66;5092782;28;20023;-75
2021/07/02 00:32:23;;;;;;;9.98;7.18;;;;;;;17.87;78.86;101062.66;5093865;28;20020;-75
2021/07/02 00:34:48;;;;;;;9.10;6.82;;;;;;;17.87;79.12;101057.13;5094418;28;20036;-75
2021/07/02 00:37:13;;;;;;;9.48;6.95;;;;;;;17.88;79.09;101064.28;5056896;28;20024;-76
2021/07/02 00:39:39;;;;;;;12.23;7.50;;;;;;;17.88;79.13;101059.59;5084769;28;20469;-76
2021/07/02 00:42:04;;;;;;;10.68;7.75;;;;;;;17.89;78.99;101060.41;5093314;28;20093;-75
2021/07/02 00:44:46;;;;;;;10.20;7.43;;;;;;;17.89;79.26;101054.88;5095987;28;20028;-75
2021/07/02 00:47:12;;;;;;;11.55;7.20;;;;;;;17.90;79.13;101060.09;5094552;28;20050;-75
2021/07/02 00:49:38;;;;;;;8.68;7.22;;;;;;;17.90;79.19;101054.56;5094544;28;20032;-75
2021/07/02 00:52:04;;;;;;;10.52;7.85;;;;;;;17.91;79.03;101058.13;5092195;28;20028;-75
2021/07/02 00:54:29;;;;;;;12.90;8.23;;;;;;;17.92;79.12;101057.84;5093571;28;20023;-76
2021/07/02 00:56:55;;;;;;;10.80;7.60;;;;;;;17.93;79.25;101055.88;5076691;28;20031;-75
2021/07/02 00:59:20;;;;;;;10.20;7.65;;;;;;;17.93;79.13;101058.66;5075224;28;20024;-75
2021/07/02 01:01:45;;;;;;;9.68;7.68;;;;;;;17.95;79.36;101056.34;5094681;28;20043;-75
2021/07/02 01:04:11;;;;;;;10.65;7.63;;;;;;;17.95;79.13;101059.97;5077204;28;20024;-76
2021/07/02 01:06:36;;;;;;;9.65;6.68;;;;;;;17.95;79.32;101059.97;5093681;28;20382;-75
2021/07/02 01:09:04;;;;;;;8.10;6.95;;;;;;;17.97;79.39;101067.91;5094974;28;20032;-75
2021/07/02 01:11:30;;;;;;;9.98;7.82;;;;;;;17.96;79.36;101066.28;5094203;28;20504;-75
2021/07/02 01:13:55;;;;;;;10.23;7.80;;;;;;;17.92;79.43;101057.00;5094222;28;20024;-75
2021/07/02 01:16:21;;;;;;;9.88;7.03;;;;;;;17.89;79.40;101063.97;5094353;28;20028;-75
2021/07/02 01:18:46;;;;;;;9.65;6.63;;;;;;;17.85;79.42;101059.41;5093977;28;20016;-75
2021/07/02 01:21:12;;;;;;;8.68;6.15;;;;;;;17.81;79.53;101058.41;5094039;28;20027;-75
2021/07/02 01:23:37;;;;;;;10.50;6.05;;;;;;;17.79;79.58;101058.75;5095448;28;20488;-75
2021/07/02 01:26:03;;;;;;;7.50;6.63;;;;;;;17.76;79.63;101059.34;5094187;28;20028;-76
2021/07/02 01:28:28;;;;;;;9.10;6.97;;;;;;;17.73;79.81;101058.03;5093023;28;20028;-75
2021/07/02 01:30:54;;;;;;;10.60;7.18;;;;;;;17.71;79.73;101054.75;5094197;28;20465;-75
2021/07/02 01:33:19;;;;;;;8.00;6.50;;;;;;;17.68;79.88;101049.88;5095001;28;20381;-75
2021/07/02 01:35:44;;;;;;;9.63;6.70;;;;;;;17.65;80.07;101056.03;5090810;28;20467;-76
2021/07/02 01:38:10;;;;;;;6.97;6.28;;;;;;;17.62;79.97;101061.34;5095060;28;20465;-75
2021/07/02 01:40:35;;;;;;;8.07;6.35;;;;;;;17.57;80.15;101062.31;5094251;28;20523;-75
2021/07/02 01:43:01;;;;;;;7.00;6.20;;;;;;;17.55;80.17;101067.31;5093551;28;20036;-75
2021/07/02 01:45:26;;;;;;;8.60;7.10;;;;;;;17.52;80.28;101059.66;5093263;28;20381;-75
2021/07/02 01:47:52;;;;;;;9.30;6.82;;;;;;;17.49;80.46;101063.06;5092312;28;20028;-75
2021/07/02 01:50:17;;;;;;;7.90;6.28;;;;;;;17.46;80.41;101056.22;5092719;28;20586;-75
2021/07/02 01:52:43;;;;;;;7.45;6.03;;;;;;;17.42;80.54;101060.72;5092844;28;20385;-75
2021/07/02 01:55:08;;;;;;;12.00;7.05;;;;;;;17.40;80.58;101057.47;5094473;28;20031;-76
2021/07/02 01:57:34;;;;;;;10.13;7.00;;;;;;;17.37;80.69;101062.78;5091146;28;20150;-75
2021/07/02 01:59:59;;;;;;;9.60;6.32;;;;;;;17.36;80.56;101063.94;5093707;28;20023;-75
2021/07/02 02:02:25;;;;;;;9.05;6.65;;;;;;;17.35;80.76;101067.78;5091998;28;20020;-75
2021/07/02 02:04:50;;;;;;;7.80;6.53;;;;;;;17.33;80.95;101059.03;5094448;28;20032;-75
2021/07/02 02:07:15;;;;;;;8.82;6.68;;;;;;;17.31;80.92;101065.66;5091981;28;20099;-75
2021/07/02 02:09:41;;;;;;;8.35;6.18;;;;;;;17.30;81.03;101055.78;5093079;28;20024;-75
2021/07/02 02:12:07;;;;;;;9.30;6.65;;;;;;;17.29;81.03;101065.16;5092308;28;20377;-75
2021/07/02 02:14:32;;;;;;;9.48;7.35;;;;;;;17.29;81.16;101067.91;5094103;28;20016;-75
2021/07/02 02:16:57;;;;;;;9.15;7.07;;;;;;;17.28;81.23;101068.25;5085985;28;20198;-75
2021/07/02 02:19:23;;;;;;;10.15;6.57;;;;;;;17.27;81.25;101061.91;5092905;28;20394;-75
2021/07/02 02:21:49;;;;;;;7.53;6.28;;;;;;;17.27;81.27;101061.91;5093167;28;20054;-75
2021/07/02 02:24:15;;;;;;;7.88;6.55;;;;;;;17.26;81.25;101063.03;5092679;28;20497;-75
2021/07/02 02:26:40;;;;;;;8.45;6.35;;;;;;;17.25;81.38;101069.69;5091669;28;20028;-75
2021/07/02 02:29:06;;;;;;;9.43;6.78;;;;;;;17.26;81.28;101067.72;5076116;28;20024;-75
2021/07/02 02:31:32;;;;;;;9.45;6.57;;;;;;;17.26;81.35;101065.78;5070243;28;20067;-75
2021/07/02 02:33:57;;;;;;;9.43;7.15;;;;;;;17.26;81.46;101065.78;5088122;28;20024;-75
2021/07/02 02:36:23;;;;;;;8.50;6.40;;;;;;;17.25;81.50;101064.16;5083560;28;20503;-76
2021/07/02 02:38:48;;;;;;;9.20;6.85;;;;;;;17.26;81.35;101054.75;5093808;28;20020;-76
2021/07/02 02:41:13;;;;;;;8.32;7.22;;;;;;;17.26;81.49;101054.75;5074750;28;20484;-75
2021/07/02 02:43:39;;;;;;;10.88;6.93;;;;;;;17.26;81.45;101053.97;5092577;28;20032;-75
2021/07/02 02:46:04;;;;;;;8.02;7.00;;;;;;;17.26;81.46;101048.44;5091677;28;20016;-75
2021/07/02 02:48:30;;;;;;;9.05;6.72;;;;;;;17.27;81.42;101050.91;5092333;28;20091;-75
2021/07/02 02:50:55;;;;;;;9.75;6.88;;;;;;;17.28;81.63;101058.03;5089802;28;20511;-75
2021/07/02 02:53:22;;;;;;;10.15;6.75;;;;;;;17.28;81.48;101055.28;5093176;28;20462;-75
2021/07/02 02:55:47;;;;;;;8.75;6.60;;;;;;;17.29;81.57;101059.66;5091616;28;20060;-75
2021/07/02 02:58:13;;;;;;;10.27;7.18;;;;;;;17.30;81.53;101058.53;5092323;28;20050;-75
2021/07/02 03:00:38;;;;;;;7.38;6.00;;;;;;;17.33;81.46;101048.84;5090349;28;20032;-76
2021/07/02 03:03:04;;;;;;;9.95;7.80;;;;;;;17.35;81.39;101040.25;5091753;28;20047;-75
2021/07/02 03:05:29;;;;;;;8.63;6.47;;;;;;;17.39;81.42;101055.84;5092642;28;20480;-75
2021/07/02 03:07:55;;;;;;;11.02;7.32;;;;;;;17.44;81.34;101049.41;5095544;28;20016;-75
2021/07/02 03:10:20;;;;;;;11.02;7.15;;;;;;;17.46;81.17;101055.38;5095918;28;20031;-75
2021/07/02 03:12:46;;;;;;;9.18;7.03;;;;;;;17.47;81.15;101049.56;5096427;28;20027;-75
2021/07/02 03:15:11;;;;;;;8.73;7.03;;;;;;;17.46;81.02;101060.91;5094108;28;20089;-75
2021/07/02 03:17:37;;;;;;;8.68;6.53;;;;;;;17.45;81.09;101062.84;5094018;28;20111;-76
2021/07/02 03:20:05;;;;;;;11.60;7.00;;;;;;;17.45;81.09;101051.00;5095503;28;20052;-76
2021/07/02 03:22:30;;;;;;;6.80;5.70;;;;;;;17.46;81.09;101055.38;5078655;28;20028;-75
2021/07/02 03:24:56;;;;;;;11.23;6.97;;;;;;;17.46;81.05;101060.91;5093429;28;20031;-76
2021/07/02 03:27:21;;;;;;;8.50;6.00;;;;;;;17.48;80.64;101061.41;5094152;28;20020;-76
2021/07/02 03:29:47;;;;;;;8.15;6.13;;;;;;;17.50;80.95;101064.69;5093992;28;20031;-76
2021/07/02 03:32:12;;;;;;;9.32;6.28;;;;;;;17.55;80.42;101069.25;5096705;28;20353;-77
2021/07/02 03:34:38;;;;;;;8.65;6.20;;;;;;;17.58;80.39;101072.19;5096028;28;20618;-75
2021/07/02 03:37:04;;;;;;;9.25;5.72;;;;;;;17.62;80.46;101061.34;5081941;28;20021;-75
2021/07/02 03:39:29;;;;;;;7.57;5.72;;;;;;;17.66;80.03;101065.91;5095646;28;20059;-76
2021/07/02 03:41:55;;;;;;;10.35;6.00;;;;;;;17.68;79.89;101071.94;5097295;28;20024;-75
2021/07/02 03:44:20;;;;;;;9.35;6.00;;;;;;;17.73;80.12;101069.06;5095566;28;20386;-76
2021/07/02 03:46:45;;;;;;;6.35;5.40;;;;;;;17.77;79.72;101068.41;5094592;28;20027;-76
2021/07/02 03:49:11;;;;;;;8.35;5.68;;;;;;;17.80;79.69;101063.09;5096148;28;20034;-76
2021/07/02 03:51:36;;;;;;;6.20;5.15;;;;;;;17.84;79.53;101066.88;5095948;28;20028;-75
2021/07/02 03:54:02;;;;;;;6.63;4.93;;;;;;;17.86;78.99;101069.31;5095944;28;20024;-76
2021/07/02 03:56:27;;;;;;;8.07;6.40;;;;;;;17.88;78.87;101076.13;5095855;28;20374;-76
2021/07/02 03:58:53;;;;;;;7.68;5.65;;;;;;;17.90;78.76;101073.06;5096396;28;20024;-76
2021/07/02 04:01:18;;;;;;;6.40;5.18;;;;;;;17.92;78.18;101079.06;5094795;28;20362;-77
2021/07/02 04:03:44;;;;;;;6.28;5.20;;;;;;;17.94;78.46;101082.31;5094301;28;20047;-75
2021/07/02 04:06:09;;;;;;;7.40;5.07;;;;;;;17.94;78.17;101076.81;5093186;28;20024;-76
2021/07/02 04:08:36;;;;;;;8.60;4.93;;;;;;;17.95;78.14;101076.50;5095737;28;20027;-76
2021/07/02 04:11:03;;;;;;;7.20;5.00;;;;;;;17.94;77.93;101080.38;5094501;28;20075;-76
2021/07/02 04:13:28;;;;;;;7.78;4.28;;;;;;;17.94;77.85;101082.31;5095668;28;20067;-76
2021/07/02 04:15:54;;;;;;;7.93;4.97;;;;;;;17.93;77.62;101089.00;5092555;28;20409;-76
2021/07/02 04:18:20;;;;;;;6.30;4.93;;;;;;;17.94;77.43;101087.84;5093115;28;20492;-76
2021/07/02 04:20:45;;;;;;;6.80;4.57;;;;;;;17.95;77.32;101089.47;5075955;28;20036;-76
2021/07/02 04:23:11;;;;;;;5.80;5.18;;;;;;;17.95;77.20;101090.31;5094975;28;20440;-76
2021/07/02 04:25:36;;;;;;;8.68;4.47;;;;;;;17.95;77.23;101092.22;5094500;28;20024;-76
2021/07/02 04:28:02;;;;;;;5.78;4.63;;;;;;;17.97;76.94;101089.97;5094812;28;20438;-76
2021/07/02 04:30:27;;;;;;;8.88;5.00;;;;;;;18.01;76.83;101092.94;5093185;28;20024;-75
2021/07/02 04:32:52;;;;;;;5.65;4.65;;;;;;;18.04;76.71;101095.84;5094097;28;20027;-75
2021/07/02 04:35:18;;;;;;;6.88;4.63;;;;;;;18.08;76.27;101098.78;5092559;28;20036;-75
2021/07/02 04:37:43;;;;;;;6.55;3.97;;;;;;;18.11;76.23;101095.41;5094024;28;20024;-75
2021/07/02 04:40:09;;;;;;;9.55;4.63;;;;;;;18.15;75.71;101085.38;5093670;28;20539;-75
2021/07/02 04:42:35;;;;;;;8.55;4.47;;;;;;;18.19;75.75;101086.34;5079832;28;20016;-75
2021/07/02 04:45:00;;;;;;;5.63;4.03;;;;;;;18.22;75.23;101079.38;5091839;28;20028;-77
2021/07/02 04:47:26;;;;;;;7.40;4.03;;;;;;;18.25;75.07;101079.56;5072568;28;20031;-75
2021/07/02 04:49:52;;;;;;;8.45;4.68;;;;;;;18.29;75.15;101086.06;5083655;28;20410;-75
2021/07/02 04:52:17;;;;;;;5.65;3.88;;;;;;;18.36;74.75;101085.59;5094704;28;20046;-75
2021/07/02 04:54:43;;;;;;;6.97;3.55;;;;;;;18.41;74.25;101093.72;5093898;28;20032;-75
2021/07/02 04:57:08;;;;;;;5.95;3.83;;;;;;;18.47;74.23;101092.47;5092759;28;20028;-76
2021/07/02 04:59:36;;;;;;;6.97;4.30;;;;;;;18.54;74.04;101103.84;5092489;28;20032;-76
2021/07/02 05:02:02;;;;;;;5.63;3.80;;;;;;;18.60;73.85;101102.56;5093538;28;20050;-76
2021/07/02 05:04:27;;;;;;;6.65;4.35;;;;;;;18.67;73.70;101101.31;5094917;28;20452;-76
2021/07/02 05:06:52;;;;;;;5.70;4.40;;;;;;;18.74;73.44;101090.59;5093217;28;20024;-75
2021/07/02 05:09:18;;;;;;;6.47;3.90;;;;;;;18.81;73.20;101094.53;5093268;28;20031;-76
2021/07/02 05:11:43;;;;;;;5.53;3.75;;;;;;;18.92;72.96;101094.22;5092305;28;20028;-76
2021/07/02 05:14:08;;;;;;;7.85;4.40;;;;;;;18.97;72.38;101097.66;5094217;28;20122;-76
2021/07/02 05:16:34;;;;;;;7.18;3.55;;;;;;;19.03;72.39;101093.59;5092032;28;20020;-76
2021/07/02 05:18:59;;;;;;;6.82;4.13;;;;;;;19.08;71.81;101090.66;5087931;28;20020;-75
2021/07/02 05:21:25;;;;;;;7.28;4.50;;;;;;;19.14;71.53;101087.75;5092850;28;20516;-75
2021/07/02 05:23:50;;;;;;;6.15;4.07;;;;;;;19.23;71.72;101096.84;5094255;28;20042;-76
2021/07/02 05:26:16;;;;;;;6.20;3.60;;;;;;;19.32;71.13;101100.44;5093950;28;20024;-75
2021/07/02 05:28:41;;;;;;;4.47;4.00;;;;;;;19.39;71.22;101109.03;5093548;28;20023;-75
2021/07/02 05:31:06;;;;;;;6.95;4.47;;;;;;;19.45;70.82;101105.00;5092824;28;20024;-75
2021/07/02 05:33:32;;;;;;;4.60;3.65;;;;;;;19.54;70.71;101098.66;5094267;28;20032;-75
2021/07/02 05:35:58;;;;;;;6.00;3.85;;;;;;;19.59;70.12;101096.53;5092635;28;20090;-74
2021/07/02 05:38:23;;;;;;;4.53;3.85;;;;;;;19.66;70.01;101099.63;5095146;28;20023;-75
2021/07/02 05:40:54;;;;;;;4.82;4.00;;;;;;;19.74;69.55;101101.56;5088216;28;20021;-76
2021/07/02 05:43:19;;;;;;;4.25;3.70;;;;;;;19.79;69.05;101114.41;5094265;28;20032;-76
2021/07/02 05:45:45;;;;;;;7.07;5.07;;;;;;;19.83;69.03;101114.56;5092925;28;20078;-75
2021/07/02 05:48:13;;;;;;;6.43;4.32;;;;;;;19.88;68.70;101106.91;5092980;28;20373;-76
2021/07/02 05:50:39;;;;;;;8.00;4.47;;;;;;;19.95;68.32;101115.53;5091373;28;20059;-76
2021/07/02 05:53:04;;;;;;;5.25;4.75;;;;;;;19.99;68.38;101114.88;5093847;28;20020;-76
2021/07/02 05:55:29;;;;;;;5.22;4.40;;;;;;;19.99;68.07;101128.69;5093442;28;20031;-76
2021/07/02 05:57:55;;;;;;;6.18;5.18;;;;;;;20.02;67.88;101117.78;5092405;28;20024;-76
2021/07/02 06:00:20;;;;;;;5.25;4.45;;;;;;;20.03;67.42;101119.41;5092802;28;20023;-76
2021/07/02 06:02:46;;;;;;;5.75;4.45;;;;;;;20.03;67.47;101110.31;5093459;28;20027;-76
2021/07/02 06:05:11;;;;;;;6.57;4.60;;;;;;;20.05;67.48;101110.75;5092135;28;20028;-76
2021/07/02 06:07:47;;;;;;;6.93;4.95;;;;;;;20.07;67.16;101114.03;5092450;28;20469;-76
2021/07/02 06:10:13;;;;;;;7.25;4.13;;;;;;;20.09;67.24;101112.56;5084617;28;20050;-76
2021/07/02 06:12:38;;;;;;;5.97;4.00;;;;;;;20.16;66.81;101112.03;5092920;28;20028;-76
2021/07/02 06:15:04;;;;;;;7.28;3.70;;;;;;;20.23;66.54;101106.00;5091423;28;20036;-76
2021/07/02 06:17:30;;;;;;;5.97;4.15;;;;;;;20.28;66.73;101109.41;5091803;28;20085;-76
2021/07/02 06:19:55;;;;;;;5.15;4.00;;;;;;;20.34;66.23;101119.13;5092012;28;20058;-76
2021/07/02 06:22:20;;;;;;;5.28;3.60;;;;;;;20.39;66.00;101112.63;5092109;28;20028;-76
2021/07/02 06:24:46;;;;;;;5.70;3.45;;;;;;;20.36;66.17;101122.41;5091963;28;20428;-76
2021/07/02 06:27:11;;;;;;;4.57;3.92;;;;;;;20.37;65.60;101112.94;5091672;28;20069;-76
2021/07/02 06:29:37;;;;;;;4.25;3.72;;;;;;;20.38;65.76;101120.13;5074812;28;20028;-76
2021/07/02 06:32:02;;;;;;;8.73;4.45;;;;;;;20.36;65.50;101116.84;5091902;28;20031;-76
2021/07/02 06:34:28;;;;;;;4.72;3.70;;;;;;;20.37;65.66;101124.00;5091119;28;20380;-76
2021/07/02 06:36:53;;;;;;;6.72;4.40;;;;;;;20.44;65.52;101122.69;5090285;28;20040;-76
2021/07/02 06:39:18;;;;;;;4.72;3.90;;;;;;;20.49;64.99;101128.03;5092251;28;20028;-75
2021/07/02 06:41:44;;;;;;;5.30;4.20;;;;;;;20.56;64.79;101117.28;5091767;28;20043;-76
2021/07/02 06:44:09;;;;;;;5.13;3.65;;;;;;;20.61;64.58;101122.63;5089034;28;20016;-75
2021/07/02 06:46:35;;;;;;;8.93;4.13;;;;;;;20.68;64.32;101122.09;5091722;28;20488;-76
2021/07/02 06:49:01;;;;;;;4.35;3.78;;;;;;;20.78;64.19;101117.00;5077326;28;20023;-76
2021/07/02 06:51:26;;;;;;;7.55;3.60;;;;;;;20.86;63.65;101123.63;5090635;28;20031;-75
2021/07/02 06:53:52;;;;;;;4.50;3.47;;;;;;;20.94;63.76;101119.19;5078170;28;20519;-76
2021/07/02 06:56:17;;;;;;;7.00;4.05;;;;;;;21.00;63.56;101118.66;5090244;28;20020;-76
2021/07/02 06:58:43;;;;;;;5.70;3.92;;;;;;;21.06;63.35;101117.31;5092908;28;20048;-75
2021/07/02 07:01:09;;;;;;;4.65;3.88;;;;;;;21.09;63.28;101115.84;5090189;28;20031;-76
2021/07/02 07:03:34;;;;;;;7.43;3.95;;;;;;;21.05;63.56;101109.31;5091249;28;20107;-76
2021/07/02 07:06:00;;;;;;;5.07;4.55;;;;;;;21.01;63.44;101111.16;5089092;28;20062;-75
2021/07/02 07:08:25;;;;;;;5.28;3.80;;;;;;;21.02;63.24;101096.16;5088912;28;20031;-76
2021/07/02 07:10:51;;;;;;;4.82;3.60;;;;;;;21.03;63.23;101095.00;5091202;28;20036;-76
2021/07/02 07:13:16;;;;;;;4.80;3.67;;;;;;;20.99;63.29;101100.41;5091616;28;20028;-75
2021/07/02 07:15:41;;;;;;;5.72;3.95;;;;;;;20.97;63.26;101097.16;5090607;28;20522;-77
2021/07/02 07:18:07;;;;;;;8.43;3.97;;;;;;;21.01;63.26;101103.66;5091098;28;20024;-76
2021/07/02 07:20:32;;;;;;;5.90;3.83;;;;;;;21.07;63.23;101112.59;5090632;28;20039;-76
2021/07/02 07:22:58;;;;;;;4.75;3.75;;;;;;;21.12;62.82;101117.94;5088862;28;20125;-77
2021/07/02 07:25:24;;;;;;;5.20;3.63;;;;;;;21.14;62.78;101117.56;5091397;28;20081;-76
2021/07/02 07:27:50;;;;;;;5.78;3.60;;;;;;;21.18;62.50;101119.34;5090374;28;20040;-75
2021/07/02 07:30:15;;;;;;;4.10;3.63;;;;;;;21.27;62.22;101122.06;5093142;28;20024;-76
2021/07/02 07:32:42;;;;;;;6.18;3.97;;;;;;;21.43;62.18;101131.41;5091798;28;20024;-76
2021/07/02 07:37:57;;;;;;;4.25;3.30;;;;;;;21.80;61.53;101136.28;5091659;28;20162;-75
2021/07/02 07:40:24;;;;;;;6.20;3.60;;;;;;;21.89;61.38;101123.16;5093375;28;20028;-76
2021/07/02 07:42:50;;;;;;;6.88;4.05;;;;;;;22.00;60.71;101121.56;5090715;28;20280;-76
2021/07/02 07:45:15;;;;;;;5.68;3.08;;;;;;;22.07;60.88;101127.38;5091934;28;20470;-76
2021/07/02 07:47:41;;;;;;;3.95;3.60;;;;;;;22.25;60.40;101114.13;5092435;28;20421;-75
2021/07/02 07:50:11;;;;;;;5.10;3.90;;;;;;;22.37;60.34;101113.31;5089648;28;20082;-75
2021/07/02 07:52:51;;;;;;;4.97;4.00;;;;;;;22.53;60.21;101121.78;5095444;28;20376;-76
2021/07/02 07:55:16;;;;;;;9.43;4.18;;;;;;;22.65;60.06;101118.19;5096266;28;20076;-76
2021/07/02 07:57:42;;;;;;;4.78;3.92;;;;;;;22.76;59.77;101125.72;5095064;28;20664;-76
2021/07/02 08:00:08;;;;;;;6.38;4.43;;;;;;;22.87;59.35;101126.06;5096752;28;20027;-76
2021/07/02 08:02:33;;;;;;;6.28;4.38;;;;;;;22.88;59.26;101137.97;5093471;28;20121;-76
2021/07/02 08:04:59;;;;;;;6.05;4.63;;;;;;;22.88;59.09;101133.22;5077801;28;20032;-77
2021/07/02 08:07:24;;;;;;;5.60;4.30;;;;;;;22.99;59.10;101128.84;5092224;28;20027;-76
2021/07/02 08:09:49;;;;;;;5.90;4.43;;;;;;;23.16;58.76;101138.06;5096257;28;20024;-76
2021/07/02 08:12:15;;;;;;;4.88;4.15;;;;;;;23.29;58.42;101136.88;5093756;28;20027;-77
2021/07/02 08:14:40;;;;;;;5.57;4.85;;;;;;;23.43;58.01;101131.75;5094691;28;20020;-77
2021/07/02 08:17:06;;;;;;;6.60;4.10;;;;;;;23.55;57.58;101127.31;5093078;28;20024;-76
2021/07/02 08:19:31;;;;;;;5.80;4.43;;;;;;;23.63;57.40;101140.28;5094097;28;20031;-77
2021/07/02 08:21:56;;;;;;;6.15;4.25;;;;;;;23.72;57.07;101140.16;5094378;28;20027;-77
2021/07/02 08:24:22;;;;;;;7.60;4.57;;;;;;;23.74;56.82;101137.81;5094092;28;20034;-76
2021/07/02 08:26:55;;;;;;;6.18;4.20;;;;;;;23.77;56.31;101140.69;5093879;28;20020;-75
2021/07/02 08:29:25;;;;;;;6.63;3.75;;;;;;;23.80;56.00;101136.41;5096725;28;20043;-76
2021/07/02 08:31:50;;;;;;;6.35;4.07;;;;;;;23.86;56.30;101130.19;5085839;28;20043;-75
2021/07/02 08:34:16;;;;;;;6.50;3.58;;;;;;;23.93;56.00;101132.38;5093426;28;20481;-76
2021/07/02 08:36:41;;;;;;;4.72;3.30;;;;;;;24.01;55.80;101136.16;5093205;28;20468;-75
2021/07/02 08:39:07;;;;;;;5.40;3.50;;;;;;;24.08;55.41;101139.94;5078118;28;20032;-75
2021/07/02 08:41:32;;;;;;;5.65;3.58;;;;;;;24.17;55.01;101141.75;5093225;28;20073;-75
2021/07/02 08:43:58;;;;;;;3.85;3.42;;;;;;;24.27;54.79;101127.28;5077987;28;20374;-79
2021/07/02 08:46:24;;;;;;;5.75;3.50;;;;;;;24.44;54.89;101128.94;5093741;28;20042;-77
2021/07/02 08:48:50;;;;;;;3.97;3.53;;;;;;;24.56;54.41;101132.44;5075908;28;20535;-77
2021/07/02 08:51:15;;;;;;;5.25;3.90;;;;;;;24.65;53.88;101129.47;5091268;28;20077;-77
2021/07/02 08:53:41;;;;;;;5.85;3.75;;;;;;;24.79;53.45;101134.56;5094930;28;20024;-79
2021/07/02 08:56:07;;;;;;;4.70;3.17;;;;;;;24.86;53.55;101145.09;5093484;28;20033;-79
2021/07/02 08:58:33;;;;;;;4.55;3.65;;;;;;;24.90;52.71;101135.63;5083041;28;20021;-79
2021/07/02 09:00:58;;;;;;;4.85;3.38;;;;;;;24.95;52.66;101131.75;5092286;28;20024;-81
2021/07/02 09:03:31;;;;;;;3.72;3.42;;;;;;;24.96;52.54;101138.94;5093096;28;20039;-83
2021/07/02 09:06:15;;;;;;;4.75;4.00;;;;;;;25.02;52.50;101140.28;5093872;28;20468;-83
2021/07/02 09:08:59;;;;;;;4.05;3.65;;;;;;;25.00;52.46;101132.28;5074682;28;20044;-82
2021/07/02 09:11:25;;;;;;;4.32;3.15;;;;;;;25.02;52.70;101132.72;5092202;28;20027;-77
2021/07/02 09:13:50;;;;;;;4.90;3.50;;;;;;;25.06;52.43;101138.38;5095967;28;20408;-82
2021/07/02 09:16:23;;;;;;;8.50;3.25;;;;;;;25.09;52.01;101134.84;5094636;28;20035;-83
2021/07/02 09:18:49;;;;;;;7.18;3.35;;;;;;;25.19;52.03;101142.69;5081321;28;20037;-83
2021/07/02 09:21:25;;;;;;;4.07;3.67;;;;;;;25.31;51.43;101144.53;5090823;28;20031;-84
2021/07/02 09:23:51;;;;;;;4.10;3.70;;;;;;;25.44;51.32;101143.22;5085382;28;20377;-82
2021/07/02 09:26:41;;;;;;;8.00;3.72;;;;;;;25.53;51.27;101140.22;5094117;28;20057;-83
2021/07/02 09:29:22;;;;;;;5.03;3.47;;;;;;;25.64;50.77;101135.66;5084392;28;20020;-83
2021/07/02 09:31:57;;;;;;;4.20;3.55;;;;;;;25.68;50.74;101125.38;5076982;28;20020;-81
2021/07/02 09:34:23;;;;;;;7.63;3.47;;;;;;;25.64;51.00;101124.47;5091247;28;20036;-83
2021/07/02 09:36:49;;;;;;;7.22;3.88;;;;;;;25.64;51.03;101134.84;5088337;28;20409;-82
2021/07/02 09:39:28;;;;;;;4.03;3.60;;;;;;;25.79;50.92;101130.38;5095088;28;20078;-82
2021/07/02 09:41:53;;;;;;;3.63;3.33;;;;;;;25.92;51.05;101134.63;5091273;28;20035;-81
2021/07/02 09:44:19;;;;;;;3.72;3.33;;;;;;;26.05;50.52;101132.47;5093963;28;20432;-82
2021/07/02 09:46:44;;;;;;;5.35;3.88;;;;;;;26.19;50.01;101131.91;5092890;28;20035;-82
2021/07/02 09:49:23;;;;;;;5.63;4.00;;;;;;;26.30;49.78;101124.50;5093042;28;20020;-81
2021/07/02 09:51:48;;;;;;;5.57;3.70;;;;;;;26.25;49.91;101131.25;5092599;28;20032;-82
2021/07/02 09:54:14;;;;;;;4.13;3.53;;;;;;;26.27;49.95;101133.66;5073451;28;20028;-81
2021/07/02 09:56:39;;;;;;;4.00;3.63;;;;;;;26.25;50.05;101130.44;5083109;28;20061;-82
2021/07/02 09:59:15;;;;;;;4.57;3.90;;;;;;;26.24;49.55;101129.59;5090220;28;20027;-82
2021/07/02 10:01:40;;;;;;;4.07;3.28;;;;;;;26.28;49.83;101135.28;5093167;28;20107;-82
2021/07/02 10:04:07;;;;;;;5.80;3.50;;;;;;;26.20;49.94;101133.53;5094066;28;20016;-82
2021/07/02 10:06:32;;;;;;;4.00;3.63;;;;;;;26.30;49.84;101121.72;5093494;28;20027;-84
2021/07/02 10:09:03;;;;;;;5.05;3.80;;;;;;;26.46;49.61;101125.19;5080814;28;20465;-81
2021/07/02 10:11:28;;;;;;;4.65;3.55;;;;;;;26.60;49.01;101126.63;5078863;28;20032;-81
2021/07/02 10:13:53;;;;;;;4.70;3.38;;;;;;;26.64;49.69;101125.50;5091088;28;20035;-81
2021/07/02 10:16:19;;;;;;;4.57;3.70;;;;;;;26.88;49.52;101124.28;5075409;28;20500;-81
2021/07/02 10:18:46;;;;;;;4.28;3.88;;;;;;;27.01;48.81;101117.28;5092596;28;20024;-81
2021/07/02 10:21:13;;;;;;;3.65;3.35;;;;;;;27.15;48.85;101113.88;5093133;28;20028;-80
2021/07/02 10:23:43;;;;;;;5.13;3.78;;;;;;;27.40;48.33;101116.22;5075427;28;20024;-81
2021/07/02 10:26:09;;;;;;;4.75;3.45;;;;;;;27.61;47.81;101124.03;5093274;28;20521;-81
2021/07/02 10:28:39;;;;;;;4.88;4.10;;;;;;;27.76;47.22;101123.03;5091680;28;20481;-80
2021/07/02 10:31:07;;;;;;;7.53;4.63;;;;;;;27.64;47.59;101126.09;5093250;28;20059;-79
2021/07/02 10:33:32;;;;;;;5.30;4.07;;;;;;;27.63;47.83;101119.69;5075732;28;20024;-80
2021/07/02 10:35:59;;;;;;;5.40;3.78;;;;;;;27.64;47.72;101121.31;5092946;28;20043;-80
2021/07/02 10:38:34;;;;;;;3.80;3.50;;;;;;;27.61;47.95;101126.84;5073957;28;20115;-81
2021/07/02 10:41:12;;;;;;;6.72;3.80;;;;;;;27.79;47.76;101118.66;5079394;28;20020;-81
2021/07/02 10:44:08;;;;;;;5.45;3.67;;;;;;;28.27;47.37;101119.56;5078325;28;20093;-81
2021/07/02 10:46:34;;;;;;;3.85;3.55;;;;;;;28.53;46.83;101115.78;5073367;28;20479;-80
2021/07/02 10:49:12;;;;;;;6.10;3.83;;;;;;;28.58;46.01;101116.63;5091103;28;20349;-82
2021/07/02 10:51:42;;;;;;;6.03;3.95;;;;;;;28.66;45.98;101102.25;5064908;28;20024;-80
2021/07/02 10:54:13;;;;;;;7.07;4.28;;;;;;;28.62;45.40;101106.22;5091665;28;20126;-80
2021/07/02 10:56:44;;;;;;;5.10;3.75;;;;;;;28.67;45.95;101115.06;5094034;28;20035;-81
2021/07/02 10:59:12;;;;;;;5.28;3.60;;;;;;;28.81;45.16;101111.59;5062433;28;20028;-80
2021/07/02 11:01:44;;;;;;;6.70;3.83;;;;;;;28.60;45.29;101120.66;5094131;28;20031;-80
2021/07/02 11:04:28;;;;;;;;;;;;;;;28.48;45.95;101120.94;5091569;28;20118;-81
2021/07/02 11:06:53;;;;;;;5.60;3.97;;;;;;;28.38;45.79;101127.28;5093266;28;19999;-80
2021/07/02 11:09:19;;;;;;;5.60;3.70;;;;;;;28.53;45.84;101123.41;5092649;28;20027;-80
2021/07/02 11:12:08;;;;;;;6.10;3.80;;;;;;;29.05;44.63;101115.75;5073131;28;20463;-85
2021/07/02 11:14:33;;;;;;;6.38;3.17;;;;;;;29.33;43.95;101117.06;5090948;28;20025;-81
2021/07/02 11:17:23;;;;;;;5.38;4.47;;;;;;;29.59;43.54;101125.22;5092848;28;20532;-81
2021/07/02 11:20:04;;;;;;;4.22;3.83;;;;;;;29.88;43.23;101118.91;5093570;28;20051;-80
2021/07/02 11:22:31;;;;;;;6.28;4.85;;;;;;;30.16;42.64;101123.75;5092373;28;20028;-79
2021/07/02 11:25:08;;;;;;;6.18;4.30;;;;;;;30.20;42.46;101113.31;5091868;28;20370;-80